createdAt,value
2023-02-26T00:00:48.997Z,92.52
2023-02-26T00:01:49.056Z,92.52
2023-02-26T00:02:49.044Z,92.52
2023-02-26T00:03:48.967Z,92.52
2023-02-26T00:04:48.965Z,91.89
2023-02-26T00:05:48.937Z,91.58
2023-02-26T00:06:49.017Z,91.47
2023-02-26T00:07:48.910Z,91.47
2023-02-26T00:08:49.010Z,91.47
2023-02-26T00:09:48.910Z,91.62
2023-02-26T00:10:48.880Z,91.72
2023-02-26T00:11:48.868Z,92.04
2023-02-26T00:12:48.879Z,92.25
2023-02-26T00:13:48.849Z,92.25
2023-02-26T00:14:48.852Z,92.14
2023-02-26T00:15:48.859Z,92.04
2023-02-26T00:16:48.857Z,92.14
2023-02-26T00:17:48.808Z,92.19
2023-02-26T00:18:48.799Z,92.50
2023-02-26T00:19:48.783Z,92.82
2023-02-26T00:20:48.777Z,92.92
2023-02-26T00:21:48.791Z,93.23
2023-02-26T00:22:48.766Z,93.33
2023-02-26T00:23:48.769Z,93.33
2023-02-26T00:24:48.733Z,93.33
2023-02-26T00:25:48.719Z,93.33
2023-02-26T00:26:48.708Z,93.23
2023-02-26T00:27:48.727Z,93.23
2023-02-26T00:28:48.689Z,93.23
2023-02-26T00:29:48.677Z,93.17
2023-02-26T00:30:48.709Z,93.17
2023-02-26T00:31:48.727Z,93.27
2023-02-26T00:32:48.668Z,93.27
2023-02-26T00:33:49.414Z,93.38
2023-02-26T00:34:48.649Z,93.48
2023-02-26T00:35:48.619Z,93.70
2023-02-26T00:36:48.600Z,93.70
2023-02-26T00:37:48.617Z,93.70
2023-02-26T00:38:48.588Z,93.70
2023-02-26T00:39:48.601Z,93.70
2023-02-26T00:40:48.556Z,93.48
2023-02-26T00:41:48.554Z,93.42
2023-02-26T00:42:48.540Z,93.52
2023-02-26T00:43:48.590Z,93.42
2023-02-26T00:44:48.522Z,93.32
2023-02-26T00:45:48.609Z,93.21
2023-02-26T00:46:48.501Z,93.11
2023-02-26T00:47:48.534Z,93.32
2023-02-26T00:48:48.492Z,93.42
2023-02-26T00:49:48.479Z,93.63
2023-02-26T00:50:48.480Z,93.67
2023-02-26T00:51:48.457Z,93.78
2023-02-26T00:52:48.440Z,93.78
2023-02-26T00:53:48.437Z,93.67
2023-02-26T00:54:48.417Z,93.57
2023-02-26T00:55:55.477Z,93.78
2023-02-26T00:56:48.398Z,93.99
2023-02-26T00:57:48.399Z,94.03
2023-02-26T00:58:48.381Z,94.30
2023-02-26T00:59:48.368Z,94.30
2023-02-26T01:00:48.377Z,94.20
2023-02-26T01:01:48.500Z,94.20
2023-02-26T01:02:48.336Z,94.20
2023-02-26T01:03:48.351Z,94.20
2023-02-26T01:04:48.322Z,93.99
2023-02-26T01:05:48.321Z,94.09
2023-02-26T01:06:48.315Z,94.03
2023-02-26T01:07:48.292Z,93.99
2023-02-26T01:08:48.276Z,93.99
2023-02-26T01:09:48.264Z,93.88
2023-02-26T01:10:48.256Z,93.78
2023-02-26T01:11:48.247Z,93.67
2023-02-26T01:12:48.254Z,93.57
2023-02-26T01:13:48.233Z,93.57
2023-02-26T01:14:48.213Z,93.36
2023-02-26T01:15:48.254Z,93.46
2023-02-26T01:16:48.212Z,93.36
2023-02-26T01:17:48.197Z,93.26
2023-02-26T01:18:48.164Z,93.30
2023-02-26T01:19:48.163Z,93.40
2023-02-26T01:20:48.147Z,93.51
2023-02-26T01:21:48.163Z,93.61
2023-02-26T01:22:48.129Z,93.61
2023-02-26T01:23:48.123Z,93.71
2023-02-26T01:24:48.129Z,93.82
2023-02-26T01:25:48.103Z,93.93
2023-02-26T01:26:48.097Z,93.93
2023-02-26T01:27:48.102Z,93.93
2023-02-26T01:28:48.077Z,93.93
2023-02-26T01:29:48.062Z,93.82
2023-02-26T01:30:48.073Z,93.82
2023-02-26T01:31:48.253Z,93.93
2023-02-26T01:32:48.061Z,93.93
2023-02-26T01:33:48.023Z,93.82
2023-02-26T01:34:48.002Z,93.61
2023-02-26T01:35:48.002Z,93.61
2023-02-26T01:36:47.984Z,93.30
2023-02-26T01:37:47.985Z,93.30
2023-02-26T01:38:48.004Z,93.30
2023-02-26T01:39:48.073Z,93.30
2023-02-26T01:40:47.945Z,92.98
2023-02-26T01:41:47.941Z,92.88
2023-02-26T01:42:47.947Z,92.77
2023-02-26T01:43:47.955Z,92.67
2023-02-26T01:44:47.905Z,92.46
2023-02-26T01:45:47.902Z,92.35
2023-02-26T01:46:47.950Z,92.46
2023-02-26T01:47:47.875Z,92.46
2023-02-26T01:48:47.866Z,92.57
2023-02-26T01:49:47.877Z,92.46
2023-02-26T01:50:47.843Z,92.46
2023-02-26T01:51:47.847Z,92.67
2023-02-26T01:52:47.824Z,92.77
2023-02-26T01:53:47.824Z,92.77
2023-02-26T01:54:47.828Z,92.88
2023-02-26T01:55:47.813Z,92.77
2023-02-26T01:56:47.785Z,92.77
2023-02-26T01:57:47.779Z,92.77
2023-02-26T01:58:47.768Z,92.98
2023-02-26T01:59:47.756Z,92.98
2023-02-26T02:00:47.780Z,93.08
2023-02-26T02:01:47.739Z,92.98
2023-02-26T02:02:47.811Z,93.08
2023-02-26T02:03:47.724Z,93.19
2023-02-26T02:04:47.731Z,93.08
2023-02-26T02:05:47.716Z,93.08
2023-02-26T02:06:47.688Z,93.30
2023-02-26T02:07:47.683Z,93.08
2023-02-26T02:08:47.667Z,92.88
2023-02-26T02:09:47.769Z,92.77
2023-02-26T02:10:47.669Z,92.67
2023-02-26T02:11:47.640Z,92.67
2023-02-26T02:12:47.622Z,92.88
2023-02-26T02:13:47.622Z,92.77
2023-02-26T02:14:47.606Z,92.88
2023-02-26T02:15:47.619Z,92.88
2023-02-26T02:16:47.688Z,92.98
2023-02-26T02:17:47.578Z,92.88
2023-02-26T02:18:47.562Z,92.88
2023-02-26T02:19:47.559Z,92.88
2023-02-26T02:20:47.540Z,93.19
2023-02-26T02:21:47.554Z,92.98
2023-02-26T02:22:47.510Z,92.98
2023-02-26T02:23:47.527Z,92.98
2023-02-26T02:24:47.496Z,92.98
2023-02-26T02:25:47.489Z,92.88
2023-02-26T02:26:47.475Z,93.08
2023-02-26T02:27:47.492Z,93.19
2023-02-26T02:28:47.488Z,93.30
2023-02-26T02:29:47.440Z,93.19
2023-02-26T02:30:47.456Z,93.19
2023-02-26T02:31:47.558Z,92.98
2023-02-26T02:32:47.457Z,92.92
2023-02-26T02:33:47.409Z,93.02
2023-02-26T02:34:47.410Z,93.13
2023-02-26T02:35:47.390Z,93.24
2023-02-26T02:36:47.366Z,93.34
2023-02-26T02:37:47.378Z,93.24
2023-02-26T02:38:47.352Z,93.24
2023-02-26T02:39:47.364Z,93.24
2023-02-26T02:40:47.326Z,93.55
2023-02-26T02:41:47.339Z,93.34
2023-02-26T02:42:47.305Z,93.44
2023-02-26T02:43:47.317Z,93.34
2023-02-26T02:44:47.285Z,93.44
2023-02-26T02:45:47.346Z,93.24
2023-02-26T02:46:47.330Z,93.24
2023-02-26T02:47:47.266Z,93.13
2023-02-26T02:48:47.250Z,93.13
2023-02-26T02:49:47.280Z,93.13
2023-02-26T02:50:47.228Z,93.02
2023-02-26T02:51:47.223Z,93.02
2023-02-26T02:52:47.208Z,92.92
2023-02-26T02:53:47.212Z,92.82
2023-02-26T02:54:47.191Z,92.71
2023-02-26T02:55:47.207Z,92.50
2023-02-26T02:56:47.188Z,92.57
2023-02-26T02:57:47.187Z,92.46
2023-02-26T02:58:47.147Z,92.35
2023-02-26T02:59:47.139Z,92.25
2023-02-26T03:00:47.129Z,92.04
2023-02-26T03:01:47.116Z,92.08
2023-02-26T03:02:47.149Z,92.08
2023-02-26T03:03:47.101Z,92.29
2023-02-26T03:04:47.076Z,92.40
2023-02-26T03:05:47.074Z,92.29
2023-02-26T03:06:47.062Z,92.50
2023-02-26T03:07:47.077Z,92.40
2023-02-26T03:08:47.070Z,92.29
2023-02-26T03:09:47.045Z,92.29
2023-02-26T03:10:47.037Z,92.14
2023-02-26T03:11:47.036Z,92.04
2023-02-26T03:12:47.008Z,92.04
2023-02-26T03:13:46.994Z,91.94
2023-02-26T03:14:46.994Z,91.62
2023-02-26T03:15:46.984Z,91.62
2023-02-26T03:16:46.996Z,91.41
2023-02-26T03:17:46.978Z,91.41
2023-02-26T03:18:46.969Z,91.46
2023-02-26T03:19:46.936Z,91.66
2023-02-26T03:20:46.926Z,91.56
2023-02-26T03:21:46.918Z,91.46
2023-02-26T03:22:46.904Z,91.56
2023-02-26T03:23:46.899Z,91.56
2023-02-26T03:24:46.900Z,91.46
2023-02-26T03:25:46.871Z,91.46
2023-02-26T03:26:46.860Z,91.46
2023-02-26T03:27:46.864Z,91.35
2023-02-26T03:28:46.840Z,91.46
2023-02-26T03:29:46.861Z,91.56
2023-02-26T03:30:46.832Z,91.87
2023-02-26T03:31:46.960Z,91.98
2023-02-26T03:32:46.809Z,91.77
2023-02-26T03:33:46.800Z,91.66
2023-02-26T03:34:46.779Z,91.35
2023-02-26T03:35:46.780Z,91.35
2023-02-26T03:36:46.782Z,91.14
2023-02-26T03:37:46.759Z,91.14
2023-02-26T03:38:46.747Z,91.03
2023-02-26T03:39:46.732Z,91.03
2023-02-26T03:40:46.738Z,91.03
2023-02-26T03:41:46.745Z,90.93
2023-02-26T03:42:46.710Z,91.14
2023-02-26T03:43:46.691Z,91.03
2023-02-26T03:44:46.681Z,91.03
2023-02-26T03:45:46.694Z,91.14
2023-02-26T03:46:46.671Z,91.24
2023-02-26T03:47:46.673Z,91.14
2023-02-26T03:48:46.676Z,90.93
2023-02-26T03:49:46.630Z,91.03
2023-02-26T03:50:46.623Z,91.14
2023-02-26T03:51:46.646Z,91.03
2023-02-26T03:52:46.604Z,91.03
2023-02-26T03:53:46.591Z,91.18
2023-02-26T03:54:46.587Z,91.39
2023-02-26T03:55:46.567Z,91.50
2023-02-26T03:56:46.579Z,91.60
2023-02-26T03:57:46.571Z,91.50
2023-02-26T03:58:46.546Z,91.39
2023-02-26T03:59:46.533Z,91.50
2023-02-26T04:00:46.531Z,91.60
2023-02-26T04:01:46.530Z,91.71
2023-02-26T04:02:46.505Z,91.91
2023-02-26T04:03:46.492Z,91.71
2023-02-26T04:04:46.479Z,91.60
2023-02-26T04:05:46.489Z,91.60
2023-02-26T04:06:46.458Z,91.60
2023-02-26T04:07:46.470Z,91.71
2023-02-26T04:08:46.438Z,91.71
2023-02-26T04:09:46.431Z,91.50
2023-02-26T04:10:46.447Z,91.46
2023-02-26T04:11:46.416Z,91.28
2023-02-26T04:12:46.406Z,91.39
2023-02-26T04:13:46.393Z,91.39
2023-02-26T04:14:46.406Z,91.39
2023-02-26T04:15:46.392Z,91.28
2023-02-26T04:16:46.388Z,91.39
2023-02-26T04:17:46.342Z,91.28
2023-02-26T04:18:46.351Z,91.28
2023-02-26T04:19:46.331Z,91.18
2023-02-26T04:20:46.340Z,91.08
2023-02-26T04:21:46.299Z,91.08
2023-02-26T04:22:46.300Z,91.08
2023-02-26T04:23:46.308Z,91.28
2023-02-26T04:24:46.279Z,91.39
2023-02-26T04:25:46.291Z,91.39
2023-02-26T04:26:46.260Z,91.28
2023-02-26T04:27:46.239Z,91.39
2023-02-26T04:28:46.229Z,91.18
2023-02-26T04:29:46.245Z,91.08
2023-02-26T04:30:46.296Z,91.08
2023-02-26T04:31:46.408Z,91.18
2023-02-26T04:32:46.193Z,91.18
2023-02-26T04:33:46.185Z,91.18
2023-02-26T04:34:46.165Z,91.18
2023-02-26T04:35:46.153Z,91.08
2023-02-26T04:36:46.173Z,91.08
2023-02-26T04:37:46.152Z,91.08
2023-02-26T04:38:46.139Z,91.08
2023-02-26T04:39:46.117Z,90.97
2023-02-26T04:40:46.136Z,90.97
2023-02-26T04:41:46.091Z,90.97
2023-02-26T04:42:47.498Z,91.18
2023-02-26T04:43:46.084Z,91.28
2023-02-26T04:44:46.059Z,91.28
2023-02-26T04:45:46.089Z,91.50
2023-02-26T04:46:46.040Z,91.50
2023-02-26T04:47:46.020Z,91.50
2023-02-26T04:48:46.022Z,91.60
2023-02-26T04:49:46.021Z,91.50
2023-02-26T04:50:46.013Z,91.39
2023-02-26T04:51:46.105Z,91.39
2023-02-26T04:52:45.986Z,91.08
2023-02-26T04:53:45.976Z,91.08
2023-02-26T04:54:45.961Z,90.97
2023-02-26T04:55:45.949Z,90.97
2023-02-26T04:56:46.019Z,91.08
2023-02-26T04:57:45.933Z,91.08
2023-02-26T04:58:45.965Z,91.12
2023-02-26T04:59:45.987Z,91.33
2023-02-26T05:00:45.909Z,91.53
2023-02-26T05:01:46.033Z,91.53
2023-02-26T05:02:45.880Z,91.85
2023-02-26T05:03:45.885Z,92.32
2023-02-26T05:04:45.904Z,92.52
2023-02-26T05:05:45.895Z,92.63
2023-02-26T05:06:45.917Z,92.83
2023-02-26T05:07:45.904Z,92.88
2023-02-26T05:08:46.069Z,93.09
2023-02-26T05:09:45.846Z,93.30
2023-02-26T05:10:46.426Z,93.62
2023-02-26T05:11:46.135Z,93.82
2023-02-26T05:12:45.854Z,94.24
2023-02-26T05:13:45.842Z,94.35
2023-02-26T05:14:46.793Z,94.35
2023-02-26T05:15:46.002Z,94.49
2023-02-26T05:16:45.833Z,94.60
2023-02-26T05:17:45.784Z,94.71
2023-02-26T05:18:45.814Z,94.77
2023-02-26T05:19:45.855Z,94.77
2023-02-26T05:20:46.602Z,94.77
2023-02-26T05:21:45.732Z,94.87
2023-02-26T05:22:47.384Z,94.67
2023-02-26T05:23:46.777Z,94.56
2023-02-26T05:24:45.699Z,94.45
2023-02-26T05:25:46.362Z,94.49
2023-02-26T05:26:45.785Z,94.71
2023-02-26T05:27:46.794Z,94.71
2023-02-26T05:28:46.662Z,94.81
2023-02-26T05:29:45.730Z,94.92
2023-02-26T05:30:46.186Z,95.02
2023-02-26T05:31:45.758Z,95.34
2023-02-26T05:32:45.675Z,95.34
2023-02-26T05:33:45.714Z,95.23
2023-02-26T05:34:45.756Z,95.34
2023-02-26T05:35:45.612Z,95.23
2023-02-26T05:36:45.651Z,95.34
2023-02-26T05:37:46.414Z,95.34
2023-02-26T05:38:45.635Z,95.44
2023-02-26T05:39:45.561Z,95.65
2023-02-26T05:40:45.949Z,95.54
2023-02-26T05:41:45.495Z,95.54
2023-02-26T05:42:45.601Z,95.44
2023-02-26T05:43:45.537Z,95.44
2023-02-26T05:44:45.601Z,95.34
2023-02-26T05:45:45.565Z,95.44
2023-02-26T05:46:45.541Z,95.44
2023-02-26T05:47:45.504Z,95.34
2023-02-26T05:48:46.267Z,95.19
2023-02-26T05:49:45.423Z,94.98
2023-02-26T05:50:45.460Z,94.98
2023-02-26T05:51:45.452Z,94.87
2023-02-26T05:52:45.357Z,94.67
2023-02-26T05:53:45.359Z,94.56
2023-02-26T05:54:45.430Z,94.56
2023-02-26T05:55:45.368Z,94.56
2023-02-26T05:56:45.398Z,94.56
2023-02-26T05:57:45.300Z,94.35
2023-02-26T05:58:45.323Z,94.04
2023-02-26T05:59:45.289Z,94.04
2023-02-26T06:00:45.324Z,94.04
2023-02-26T06:01:45.292Z,94.04
2023-02-26T06:02:45.324Z,94.04
2023-02-26T06:03:45.239Z,93.93
2023-02-26T06:04:45.252Z,93.78
2023-02-26T06:05:45.216Z,93.72
2023-02-26T06:06:45.370Z,93.72
2023-02-26T06:07:46.275Z,93.51
2023-02-26T06:08:45.195Z,93.72
2023-02-26T06:09:45.215Z,93.93
2023-02-26T06:10:45.165Z,94.14
2023-02-26T06:11:45.240Z,94.35
2023-02-26T06:12:45.235Z,94.56
2023-02-26T06:13:45.194Z,94.67
2023-02-26T06:14:45.136Z,94.67
2023-02-26T06:15:45.143Z,94.77
2023-02-26T06:16:45.162Z,94.77
2023-02-26T06:17:45.240Z,94.87
2023-02-26T06:18:45.158Z,94.77
2023-02-26T06:19:45.187Z,94.71
2023-02-26T06:20:45.082Z,94.71
2023-02-26T06:21:45.077Z,95.02
2023-02-26T06:22:45.072Z,95.02
2023-02-26T06:23:45.033Z,95.13
2023-02-26T06:24:45.047Z,95.23
2023-02-26T06:25:45.015Z,95.44
2023-02-26T06:26:45.005Z,95.34
2023-02-26T06:27:45.019Z,95.44
2023-02-26T06:28:45.012Z,95.54
2023-02-26T06:29:44.981Z,95.54
2023-02-26T06:30:45.024Z,95.76
2023-02-26T06:31:45.179Z,95.86
2023-02-26T06:32:45.118Z,95.86
2023-02-26T06:33:45.008Z,95.90
2023-02-26T06:34:45.026Z,96.01
2023-02-26T06:35:44.910Z,96.12
2023-02-26T06:36:45.001Z,96.12
2023-02-26T06:37:44.987Z,96.43
2023-02-26T06:38:44.878Z,96.64
2023-02-26T06:39:44.877Z,96.75
2023-02-26T06:40:44.968Z,96.75
2023-02-26T06:41:44.851Z,96.95
2023-02-26T06:42:44.838Z,96.91
2023-02-26T06:43:44.860Z,97.02
2023-02-26T06:44:44.861Z,97.02
2023-02-26T06:45:44.975Z,97.02
2023-02-26T06:46:45.468Z,96.91
2023-02-26T06:47:45.303Z,96.70
2023-02-26T06:48:44.820Z,96.81
2023-02-26T06:49:44.810Z,96.70
2023-02-26T06:50:44.809Z,96.66
2023-02-26T06:51:44.743Z,96.55
2023-02-26T06:52:44.750Z,96.49
2023-02-26T06:53:44.856Z,96.39
2023-02-26T06:54:44.760Z,96.34
2023-02-26T06:55:44.792Z,96.34
2023-02-26T06:56:44.767Z,96.34
2023-02-26T06:57:44.699Z,96.45
2023-02-26T06:58:44.712Z,96.34
2023-02-26T06:59:44.719Z,96.24
2023-02-26T07:00:44.795Z,96.24
2023-02-26T07:01:44.659Z,96.24
2023-02-26T07:02:44.686Z,96.13
2023-02-26T07:03:44.629Z,96.13
2023-02-26T07:04:44.606Z,96.13
2023-02-26T07:05:44.610Z,96.09
2023-02-26T07:06:44.586Z,95.98
2023-02-26T07:07:44.593Z,95.84
2023-02-26T07:08:44.620Z,95.62
2023-02-26T07:09:46.028Z,95.21
2023-02-26T07:10:44.537Z,95.10
2023-02-26T07:11:44.537Z,94.89
2023-02-26T07:12:44.544Z,94.89
2023-02-26T07:13:44.509Z,94.68
2023-02-26T07:14:44.498Z,94.37
2023-02-26T07:15:46.270Z,94.16
2023-02-26T07:16:44.486Z,93.95
2023-02-26T07:17:44.464Z,94.06
2023-02-26T07:18:44.474Z,94.06
2023-02-26T07:19:44.442Z,94.16
2023-02-26T07:20:44.434Z,94.06
2023-02-26T07:21:44.417Z,94.26
2023-02-26T07:22:44.412Z,94.26
2023-02-26T07:23:44.406Z,94.37
2023-02-26T07:24:44.419Z,94.22
2023-02-26T07:25:44.404Z,94.22
2023-02-26T07:26:44.376Z,93.91
2023-02-26T07:27:44.358Z,93.59
2023-02-26T07:28:44.351Z,93.34
2023-02-26T07:29:44.340Z,93.02
2023-02-26T07:30:44.386Z,93.02
2023-02-26T07:31:44.482Z,92.92
2023-02-26T07:32:44.321Z,92.82
2023-02-26T07:33:44.316Z,92.71
2023-02-26T07:34:44.295Z,92.61
2023-02-26T07:35:44.274Z,92.71
2023-02-26T07:36:44.293Z,92.82
2023-02-26T07:37:44.254Z,92.82
2023-02-26T07:38:44.244Z,92.88
2023-02-26T07:39:44.233Z,92.88
2023-02-26T07:40:44.253Z,92.57
2023-02-26T07:41:44.211Z,92.14
2023-02-26T07:42:44.191Z,92.04
2023-02-26T07:43:44.182Z,91.94
2023-02-26T07:44:44.182Z,91.83
2023-02-26T07:45:44.175Z,91.79
2023-02-26T07:46:44.181Z,91.58
2023-02-26T07:47:44.139Z,91.27
2023-02-26T07:48:44.131Z,91.16
2023-02-26T07:49:44.134Z,91.06
2023-02-26T07:50:44.127Z,91.06
2023-02-26T07:51:44.105Z,90.95
2023-02-26T07:52:44.130Z,90.81
2023-02-26T07:53:44.080Z,90.70
2023-02-26T07:54:44.070Z,90.59
2023-02-26T07:55:44.068Z,90.28
2023-02-26T07:56:44.051Z,90.08
2023-02-26T07:57:44.039Z,89.97
2023-02-26T07:58:44.050Z,89.76
2023-02-26T07:59:44.017Z,89.45
2023-02-26T08:00:44.022Z,89.40
2023-02-26T08:01:44.022Z,89.30
2023-02-26T08:02:43.986Z,89.20
2023-02-26T08:03:44.002Z,89.09
2023-02-26T08:04:43.967Z,88.99
2023-02-26T08:05:43.958Z,88.88
2023-02-26T08:06:43.957Z,88.64
2023-02-26T08:07:43.937Z,88.01
2023-02-26T08:08:43.936Z,87.80
2023-02-26T08:09:43.947Z,87.90
2023-02-26T08:10:44.453Z,87.80
2023-02-26T08:11:43.893Z,87.80
2023-02-26T08:12:43.956Z,87.80
2023-02-26T08:13:43.866Z,87.80
2023-02-26T08:14:43.895Z,87.86
2023-02-26T08:15:43.943Z,87.65
2023-02-26T08:16:43.845Z,87.45
2023-02-26T08:17:43.834Z,87.45
2023-02-26T08:18:43.819Z,87.34
2023-02-26T08:19:43.842Z,87.34
2023-02-26T08:20:43.796Z,87.02
2023-02-26T08:21:43.798Z,86.88
2023-02-26T08:22:43.779Z,86.77
2023-02-26T08:23:43.798Z,86.67
2023-02-26T08:24:43.844Z,86.57
2023-02-26T08:25:43.793Z,86.57
2023-02-26T08:26:43.754Z,86.36
2023-02-26T08:27:43.749Z,86.15
2023-02-26T08:28:43.721Z,86.05
2023-02-26T08:29:43.762Z,85.83
2023-02-26T08:30:43.767Z,85.80
2023-02-26T08:31:43.802Z,85.80
2023-02-26T08:32:43.702Z,85.59
2023-02-26T08:33:43.675Z,85.27
2023-02-26T08:34:43.702Z,85.06
2023-02-26T08:35:43.665Z,84.96
2023-02-26T08:36:43.658Z,84.55
2023-02-26T08:37:43.696Z,84.55
2023-02-26T08:38:43.637Z,84.40
2023-02-26T08:39:43.614Z,83.98
2023-02-26T08:40:43.645Z,83.98
2023-02-26T08:41:47.779Z,83.98
2023-02-26T08:42:43.612Z,83.78
2023-02-26T08:43:43.566Z,83.67
2023-02-26T08:44:43.556Z,83.78
2023-02-26T08:45:43.544Z,83.57
2023-02-26T08:46:44.303Z,83.32
2023-02-26T08:47:55.638Z,83.42
2023-02-26T08:48:44.515Z,83.42
2023-02-26T08:49:43.513Z,83.42
2023-02-26T08:50:43.496Z,83.11
2023-02-26T08:51:43.533Z,82.80
2023-02-26T08:52:43.466Z,82.90
2023-02-26T08:53:43.508Z,83.01
2023-02-26T08:54:43.477Z,83.11
2023-02-26T08:55:43.459Z,83.28
2023-02-26T08:56:43.454Z,83.28
2023-02-26T08:57:43.416Z,83.28
2023-02-26T08:58:43.451Z,83.18
2023-02-26T08:59:43.402Z,82.87
2023-02-26T09:00:43.404Z,82.76
2023-02-26T09:01:43.394Z,82.87
2023-02-26T09:02:43.548Z,82.82
2023-02-26T09:03:44.099Z,82.62
2023-02-26T09:04:43.366Z,82.51
2023-02-26T09:05:43.332Z,82.20
2023-02-26T09:06:43.406Z,81.75
2023-02-26T09:07:43.330Z,81.43
2023-02-26T09:08:43.299Z,81.23
2023-02-26T09:09:43.357Z,81.50
2023-02-26T09:10:43.343Z,82.03
2023-02-26T09:11:43.389Z,81.60
2023-02-26T09:12:43.270Z,80.43
2023-02-26T09:13:43.361Z,79.59
2023-02-26T09:14:43.238Z,79.38
2023-02-26T09:15:43.289Z,79.80
2023-02-26T09:16:43.326Z,79.55
2023-02-26T09:17:43.234Z,78.83
2023-02-26T09:18:43.212Z,78.72
2023-02-26T09:19:43.185Z,78.20
2023-02-26T09:20:43.232Z,78.31
2023-02-26T09:21:43.196Z,78.58
2023-02-26T09:22:43.196Z,78.06
2023-02-26T09:23:43.215Z,77.75
2023-02-26T09:24:43.225Z,77.55
2023-02-26T09:25:43.118Z,77.20
2023-02-26T09:26:43.118Z,77.30
2023-02-26T09:27:43.148Z,77.26
2023-02-26T09:28:43.143Z,76.61
2023-02-26T09:29:43.108Z,76.40
2023-02-26T09:30:43.141Z,76.26
2023-02-26T09:31:43.249Z,75.40
2023-02-26T09:32:43.257Z,74.67
2023-02-26T09:33:43.264Z,73.70
2023-02-26T09:34:43.113Z,73.05
2023-02-26T09:35:43.085Z,71.39
2023-02-26T09:36:43.022Z,70.73
2023-02-26T09:37:43.119Z,70.42
2023-02-26T09:38:42.993Z,70.29
2023-02-26T09:39:42.984Z,69.77
2023-02-26T09:40:42.978Z,69.64
2023-02-26T09:41:43.044Z,69.09
2023-02-26T09:42:43.038Z,68.23
2023-02-26T09:43:42.934Z,67.61
2023-02-26T09:44:43.588Z,67.44
2023-02-26T09:45:44.572Z,67.13
2023-02-26T09:46:42.893Z,66.17
2023-02-26T09:47:43.396Z,65.73
2023-02-26T09:48:42.945Z,65.39
2023-02-26T09:49:42.931Z,64.46
2023-02-26T09:50:42.927Z,64.36
2023-02-26T09:51:42.864Z,63.64
2023-02-26T09:52:42.924Z,63.01
2023-02-26T09:53:42.897Z,63.19
2023-02-26T09:54:42.798Z,61.61
2023-02-26T09:55:42.809Z,60.97
2023-02-26T09:56:42.826Z,61.05
2023-02-26T09:57:42.849Z,60.19
2023-02-26T09:58:42.799Z,59.34
2023-02-26T09:59:42.760Z,59.01
2023-02-26T10:00:42.741Z,57.95
2023-02-26T10:01:42.768Z,57.75
2023-02-26T10:02:42.721Z,57.41
2023-02-26T10:03:43.001Z,57.41
2023-02-26T10:04:42.703Z,56.77
2023-02-26T10:05:42.693Z,56.15
2023-02-26T10:06:42.681Z,55.21
2023-02-26T10:07:42.670Z,55.41
2023-02-26T10:08:42.691Z,55.46
2023-02-26T10:09:42.652Z,54.51
2023-02-26T10:10:42.639Z,53.77
2023-02-26T10:11:42.620Z,53.85
2023-02-26T10:12:42.624Z,53.72
2023-02-26T10:13:56.607Z,52.55
2023-02-26T10:14:43.591Z,50.96
2023-02-26T10:15:42.582Z,50.75
2023-02-26T10:16:42.689Z,50.67
2023-02-26T10:17:42.560Z,51.01
2023-02-26T10:18:42.550Z,51.26
2023-02-26T10:19:42.575Z,50.71
2023-02-26T10:20:42.555Z,49.66
2023-02-26T10:21:42.523Z,50.34
2023-02-26T10:22:42.505Z,52.05
2023-02-26T10:23:43.927Z,52.13
2023-02-26T10:24:42.526Z,52.82
2023-02-26T10:25:42.477Z,54.02
2023-02-26T10:26:42.461Z,55.74
2023-02-26T10:27:42.604Z,57.21
2023-02-26T10:28:42.443Z,56.62
2023-02-26T10:29:42.439Z,55.33
2023-02-26T10:30:42.439Z,56.02
2023-02-26T10:31:42.491Z,56.87
2023-02-26T10:32:42.603Z,57.73
2023-02-26T10:33:42.390Z,57.21
2023-02-26T10:34:42.371Z,55.10
2023-02-26T10:35:42.400Z,52.36
2023-02-26T10:36:42.353Z,52.80
2023-02-26T10:37:42.347Z,51.14
2023-02-26T10:38:42.337Z,56.20
2023-02-26T10:39:42.321Z,52.18
2023-02-26T10:40:42.317Z,53.52
2023-02-26T10:41:42.330Z,51.54
2023-02-26T10:42:42.300Z,52.11
2023-02-26T10:43:42.277Z,52.39
2023-02-26T10:44:42.269Z,52.10
2023-02-26T10:45:42.290Z,52.31
2023-02-26T10:46:42.259Z,49.80
2023-02-26T10:47:44.468Z,50.96
2023-02-26T10:48:42.234Z,47.98
2023-02-26T10:49:42.209Z,46.47
2023-02-26T10:50:42.204Z,44.97
2023-02-26T10:51:42.227Z,43.85
2023-02-26T10:52:42.169Z,43.71
2023-02-26T10:53:42.178Z,42.54
2023-02-26T10:54:42.148Z,42.09
2023-02-26T10:55:42.151Z,41.24
2023-02-26T10:56:42.149Z,40.04
2023-02-26T10:57:42.140Z,39.94
2023-02-26T10:58:42.127Z,39.92
2023-02-26T10:59:42.109Z,39.31
2023-02-26T11:00:42.084Z,39.53
2023-02-26T11:01:42.203Z,38.54
2023-02-26T11:02:42.147Z,39.87
2023-02-26T11:03:42.058Z,41.72
2023-02-26T11:04:42.043Z,41.55
2023-02-26T11:05:42.064Z,42.88
2023-02-26T11:06:42.032Z,42.10
2023-02-26T11:07:42.037Z,41.23
2023-02-26T11:08:42.006Z,42.65
2023-02-26T11:09:41.994Z,44.26
2023-02-26T11:10:41.984Z,42.94
2023-02-26T11:11:41.976Z,42.06
2023-02-26T11:12:41.957Z,41.41
2023-02-26T11:13:41.996Z,41.45
2023-02-26T11:14:41.939Z,42.65
2023-02-26T11:15:41.997Z,43.88
2023-02-26T11:16:41.918Z,45.89
2023-02-26T11:17:41.908Z,46.85
2023-02-26T11:18:41.920Z,48.43
2023-02-26T11:19:41.901Z,48.25
2023-02-26T11:20:41.884Z,48.91
2023-02-26T11:21:41.858Z,49.30
2023-02-26T11:22:41.861Z,47.55
2023-02-26T11:23:41.841Z,47.49
2023-02-26T11:24:41.854Z,48.68
2023-02-26T11:25:41.823Z,50.04
2023-02-26T11:26:41.809Z,49.57
2023-02-26T11:27:41.798Z,50.52
2023-02-26T11:28:41.790Z,51.06
2023-02-26T11:29:41.806Z,51.65
2023-02-26T11:30:41.886Z,50.99
2023-02-26T11:31:42.137Z,49.84
2023-02-26T11:32:42.443Z,49.73
2023-02-26T11:33:41.734Z,49.72
2023-02-26T11:34:41.725Z,49.26
2023-02-26T11:35:41.754Z,49.18
2023-02-26T11:36:41.693Z,46.98
2023-02-26T11:37:41.695Z,44.34
2023-02-26T11:38:41.710Z,42.76
2023-02-26T11:39:41.662Z,43.16
2023-02-26T11:40:41.708Z,44.34
2023-02-26T11:41:41.670Z,42.04
2023-02-26T11:42:41.634Z,42.80
2023-02-26T11:43:44.134Z,43.06
2023-02-26T11:44:41.612Z,42.76
2023-02-26T11:45:41.607Z,42.98
2023-02-26T11:46:41.585Z,42.12
2023-02-26T11:47:41.597Z,44.22
2023-02-26T11:48:41.583Z,43.29
2023-02-26T11:49:41.573Z,41.60
2023-02-26T11:50:43.210Z,42.61
2023-02-26T11:51:41.540Z,44.14
2023-02-26T11:52:41.527Z,45.92
2023-02-26T11:53:41.505Z,45.31
2023-02-26T11:54:41.524Z,44.73
2023-02-26T11:55:41.490Z,44.51
2023-02-26T11:56:41.477Z,43.71
2023-02-26T11:57:41.481Z,44.38
2023-02-26T11:58:41.451Z,45.47
2023-02-26T11:59:41.439Z,46.04
2023-02-26T12:00:41.461Z,45.78
2023-02-26T12:01:41.418Z,46.49
2023-02-26T12:02:41.440Z,44.31
2023-02-26T12:03:41.443Z,43.49
2023-02-26T12:04:41.388Z,41.96
2023-02-26T12:05:41.420Z,42.06
2023-02-26T12:06:41.376Z,41.99
2023-02-26T12:07:41.355Z,40.16
2023-02-26T12:08:41.382Z,40.83
2023-02-26T12:09:41.374Z,39.73
2023-02-26T12:10:41.356Z,38.42
2023-02-26T12:11:41.330Z,38.28
2023-02-26T12:12:41.300Z,38.45
2023-02-26T12:13:41.292Z,36.68
2023-02-26T12:14:41.282Z,36.25
2023-02-26T12:15:41.308Z,34.81
2023-02-26T12:16:41.250Z,34.99
2023-02-26T12:17:41.267Z,34.77
2023-02-26T12:18:41.230Z,33.67
2023-02-26T12:19:41.234Z,33.36
2023-02-26T12:20:41.316Z,33.26
2023-02-26T12:21:41.201Z,33.16
2023-02-26T12:22:41.203Z,33.65
2023-02-26T12:23:41.213Z,32.93
2023-02-26T12:24:41.173Z,33.53
2023-02-26T12:25:41.160Z,33.31
2023-02-26T12:26:41.143Z,33.10
2023-02-26T12:27:41.132Z,32.98
2023-02-26T12:28:41.146Z,31.26
2023-02-26T12:29:41.107Z,32.06
2023-02-26T12:30:41.095Z,32.15
2023-02-26T12:31:41.142Z,31.95
2023-02-26T12:32:41.144Z,31.34
2023-02-26T12:33:41.141Z,31.14
2023-02-26T12:34:41.066Z,32.15
2023-02-26T12:35:41.045Z,31.34
2023-02-26T12:36:48.802Z,31.66
2023-02-26T12:37:42.020Z,31.85
2023-02-26T12:38:41.022Z,31.43
2023-02-26T12:39:41.035Z,32.02
2023-02-26T12:40:40.994Z,32.29
2023-02-26T12:41:40.984Z,30.67
2023-02-26T12:42:40.984Z,30.45
2023-02-26T12:43:40.963Z,29.75
2023-02-26T12:44:40.956Z,30.07
2023-02-26T12:45:40.955Z,30.26
2023-02-26T12:46:40.977Z,30.07
2023-02-26T12:47:40.941Z,30.97
2023-02-26T12:48:40.946Z,30.85
2023-02-26T12:49:40.896Z,30.85
2023-02-26T12:50:40.897Z,30.24
2023-02-26T12:51:40.909Z,30.24
2023-02-26T12:52:40.895Z,29.74